Observation data for Northwest San Angelo on 08/20/2019      Previous  Date  Next       Current Mesonet Observations  Soil Data  Daily Summary Page  Observations in Plain Language
KASU 200500Z 14007KT 31/14 A3003 RMK A01 T03050142  RH  039%=      5-min Rain = 0
KASU 200505Z 15009KT 30/14 A3003 RMK A01 T03040143  RH  039%=      5-min Rain = 0
KASU 200510Z 14008KT 30/14 A3003 RMK A01 T03040144  RH  039%=      5-min Rain = 0
KASU 200515Z 14007KT 30/15 A3003 RMK A01 T03030145  RH  040%=      5-min Rain = 0
KASU 200520Z 14007KT 30/15 A3003 RMK A01 T03010146  RH  041%=      5-min Rain = 0
KASU 200525Z 14007KT 30/15 A3003 RMK A01 T03000146  RH  041%=      5-min Rain = 0
KASU 200530Z 14007KT 30/15 A3003 RMK A01 T02990146  RH  041%=      5-min Rain = 0
KASU 200535Z 14006KT 30/15 A3003 RMK A01 T02980147  RH  041%=      5-min Rain = 0
KASU 200540Z 14006KT 30/15 A3003 RMK A01 T02970147  RH  042%=      5-min Rain = 0
KASU 200545Z 14005KT 30/15 A3004 RMK A01 T02950147  RH  042%=      5-min Rain = 0
KASU 200550Z 14005KT 29/15 A3004 RMK A01 T02930147  RH  043%=      5-min Rain = 0
KASU 200555Z 14004KT 29/15 A3004 RMK A01 T02900148  RH  044%=      5-min Rain = 0
KASU 200600Z 14004KT 29/15 A3004 RMK A01 T02870149  RH  045%=      5-min Rain = 0
KASU 200605Z 14004KT 29/15 A3004 RMK A01 T02850149  RH  045%=      5-min Rain = 0
KASU 200610Z 14003KT 28/15 A3004 RMK A01 T02830149  RH  046%=      5-min Rain = 0
KASU 200615Z 14004KT 28/15 A3004 RMK A01 T02820149  RH  046%=      5-min Rain = 0
KASU 200620Z 13004KT 28/15 A3004 RMK A01 T02790149  RH  047%=      5-min Rain = 0
KASU 200625Z 13003KT 28/15 A3004 RMK A01 T02760149  RH  048%=      5-min Rain = 0
KASU 200630Z 12003KT 27/15 A3004 RMK A01 T02740149  RH  048%=      5-min Rain = 0
KASU 200635Z 13003KT 27/15 A3003 RMK A01 T02740148  RH  048%=      5-min Rain = 0
KASU 200640Z 14003KT 28/15 A3003 RMK A01 T02750147  RH  048%=      5-min Rain = 0
KASU 200645Z 14003KT 27/15 A3003 RMK A01 T02730147  RH  048%=      5-min Rain = 0
KASU 200650Z 14003KT 27/15 A3003 RMK A01 T02710147  RH  049%=      5-min Rain = 0
KASU 200655Z 13003KT 27/15 A3003 RMK A01 T02700147  RH  049%=      5-min Rain = 0
KASU 200700Z 14003KT 27/15 A3003 RMK A01 T02700147  RH  049%=      5-min Rain = 0
KASU 200705Z 14003KT 27/15 A3003 RMK A01 T02700147  RH  049%=      5-min Rain = 0
KASU 200710Z 14003KT 27/15 A3003 RMK A01 T02690148  RH  050%=      5-min Rain = 0
KASU 200715Z 14003KT 27/15 A3003 RMK A01 T02680148  RH  050%=      5-min Rain = 0
KASU 200720Z 13002KT 27/15 A3003 RMK A01 T02670148  RH  050%=      5-min Rain = 0
KASU 200725Z 13003KT 27/15 A3003 RMK A01 T02690148  RH  050%=      5-min Rain = 0
KASU 200730Z 13003KT 27/15 A3003 RMK A01 T02680149  RH  050%=      5-min Rain = 0
KASU 200735Z 12003KT 27/15 A3003 RMK A01 T02650148  RH  051%=      5-min Rain = 0
KASU 200740Z 12003KT 26/15 A3003 RMK A01 T02630148  RH  052%=      5-min Rain = 0
KASU 200745Z 11004KT 26/15 A3003 RMK A01 T02600149  RH  053%=      5-min Rain = 0
KASU 200750Z 11004KT 26/15 A3002 RMK A01 T02580149  RH  053%=      5-min Rain = 0
KASU 200755Z 11004KT 26/15 A3002 RMK A01 T02570149  RH  053%=      5-min Rain = 0
KASU 200800Z 10004KT 25/15 A3002 RMK A01 T02520148  RH  055%=      5-min Rain = 0
KASU 200805Z 11004KT 25/15 A3002 RMK A01 T02500148  RH  056%=      5-min Rain = 0
KASU 200810Z 11005KT 25/15 A3002 RMK A01 T02490148  RH  056%=      5-min Rain = 0
KASU 200815Z 11005KT 25/15 A3002 RMK A01 T02500149  RH  056%=      5-min Rain = 0
KASU 200820Z 12005KT 26/15 A3002 RMK A01 T02560149  RH  054%=      5-min Rain = 0
KASU 200825Z 13006KT 26/15 A3002 RMK A01 T02600149  RH  053%=      5-min Rain = 0
KASU 200830Z 13006KT 26/15 A3002 RMK A01 T02640150  RH  052%=      5-min Rain = 0
KASU 200835Z 14005KT 26/15 A3002 RMK A01 T02640151  RH  052%=      5-min Rain = 0
KASU 200840Z 14006KT 27/15 A3002 RMK A01 T02650153  RH  052%=      5-min Rain = 0
KASU 200845Z 15005KT 27/15 A3002 RMK A01 T02650154  RH  053%=      5-min Rain = 0
KASU 200850Z 15005KT 26/16 A3002 RMK A01 T02630156  RH  054%=      5-min Rain = 0
KASU 200855Z 15005KT 26/16 A3002 RMK A01 T02630158  RH  055%=      5-min Rain = 0
KASU 200900Z 15004KT 26/16 A3002 RMK A01 T02630159  RH  055%=      5-min Rain = 0
KASU 200905Z 15004KT 26/16 A3002 RMK A01 T02620159  RH  056%=      5-min Rain = 0
KASU 200910Z 15004KT 26/16 A3002 RMK A01 T02600160  RH  057%=      5-min Rain = 0
KASU 200915Z 15005KT 26/16 A3003 RMK A01 T02580161  RH  057%=      5-min Rain = 0
KASU 200920Z 14004KT 26/16 A3003 RMK A01 T02560161  RH  058%=      5-min Rain = 0
KASU 200925Z 14004KT 25/16 A3003 RMK A01 T02540162  RH  060%=      5-min Rain = 0
KASU 200930Z 15003KT 25/16 A3003 RMK A01 T02520163  RH  061%=      5-min Rain = 0
KASU 200935Z 17002KT 25/16 A3003 RMK A01 T02520163  RH  061%=      5-min Rain = 0
KASU 200940Z 20001KT 25/16 A3003 RMK A01 T02500159  RH  060%=      5-min Rain = 0
KASU 200945Z 24001KT 25/16 A3003 RMK A01 T02500156  RH  058%=      5-min Rain = 0
KASU 200950Z 28001KT 25/16 A3003 RMK A01 T02490156  RH  059%=      5-min Rain = 0
KASU 200955Z 29000KT 25/16 A3003 RMK A01 T02450157  RH  061%=      5-min Rain = 0
KASU 201000Z 29001KT 25/16 A3003 RMK A01 T02450159  RH  062%=      5-min Rain = 0
KASU 201005Z 31002KT 24/15 A3003 RMK A01 T02390153  RH  061%=      5-min Rain = 0
KASU 201010Z 32003KT 23/15 A3004 RMK A01 T02340152  RH  063%=      5-min Rain = 0
KASU 201015Z 31003KT 23/15 A3004 RMK A01 T02320150  RH  063%=      5-min Rain = 0
KASU 201020Z 30002KT 23/16 A3004 RMK A01 T02330157  RH  065%=      5-min Rain = 0
KASU 201025Z 29002KT 23/16 A3004 RMK A01 T02340158  RH  066%=      5-min Rain = 0
KASU 201030Z 28002KT 23/16 A3004 RMK A01 T02330156  RH  065%=      5-min Rain = 0
KASU 201035Z 25001KT 23/16 A3004 RMK A01 T02320157  RH  066%=      5-min Rain = 0
KASU 201040Z 18001KT 24/16 A3004 RMK A01 T02380161  RH  065%=      5-min Rain = 0
KASU 201045Z 15003KT 24/16 A3004 RMK A01 T02380160  RH  065%=      5-min Rain = 0
KASU 201050Z 15003KT 24/16 A3004 RMK A01 T02370160  RH  065%=      5-min Rain = 0
KASU 201055Z 16003KT 24/16 A3004 RMK A01 T02400161  RH  064%=      5-min Rain = 0
KASU 201100Z 17002KT 24/16 A3004 RMK A01 T02400159  RH  063%=      5-min Rain = 0
KASU 201105Z 17002KT 24/16 A3004 RMK A01 T02390158  RH  064%=      5-min Rain = 0
KASU 201110Z 15003KT 24/16 A3004 RMK A01 T02400160  RH  064%=      5-min Rain = 0
KASU 201115Z 14003KT 24/16 A3004 RMK A01 T02400160  RH  064%=      5-min Rain = 0
KASU 201120Z 14004KT 24/16 A3004 RMK A01 T02370160  RH  065%=      5-min Rain = 0
KASU 201125Z 14003KT 24/16 A3004 RMK A01 T02350161  RH  066%=      5-min Rain = 0
KASU 201130Z 14001KT 23/16 A3004 RMK A01 T02340159  RH  066%=      5-min Rain = 0
KASU 201135Z 17000KT 24/16 A3004 RMK A01 T02370162  RH  066%=      5-min Rain = 0
KASU 201140Z 16000KT 24/16 A3004 RMK A01 T02390163  RH  065%=      5-min Rain = 0
KASU 201145Z 14001KT 24/17 A3005 RMK A01 T02410166  RH  066%=      5-min Rain = 0
KASU 201150Z 14002KT 24/17 A3005 RMK A01 T02390165  RH  066%=      5-min Rain = 0
KASU 201155Z 14002KT 24/16 A3005 RMK A01 T02360164  RH  067%=      5-min Rain = 0
KASU 201200Z 16002KT 24/17 A3004 RMK A01 T02360166  RH  068%=      5-min Rain = 0
KASU 201205Z 14001KT 23/16 A3005 RMK A01 T02340163  RH  068%=      5-min Rain = 0
KASU 201210Z 17001KT 23/16 A3005 RMK A01 T02260155  RH  067%=      5-min Rain = 0
KASU 201215Z 19000KT 23/16 A3005 RMK A01 T02270158  RH  068%=      5-min Rain = 0
KASU 201220Z 21000KT 23/17 A3005 RMK A01 T02330167  RH  070%=      5-min Rain = 0
KASU 201225Z 17001KT 24/17 A3005 RMK A01 T02350170  RH  070%=      5-min Rain = 0
KASU 201230Z 16002KT 24/17 A3005 RMK A01 T02360171  RH  070%=      5-min Rain = 0
KASU 201235Z 16002KT 24/17 A3006 RMK A01 T02350170  RH  070%=      5-min Rain = 0
KASU 201240Z 17001KT 24/17 A3006 RMK A01 T02380172  RH  070%=      5-min Rain = 0
KASU 201245Z 19001KT 24/18 A3006 RMK A01 T02420176  RH  070%=      5-min Rain = 0
KASU 201250Z 22001KT 24/17 A3006 RMK A01 T02430173  RH  068%=      5-min Rain = 0
KASU 201255Z 29001KT 24/16 A3006 RMK A01 T02400163  RH  065%=      5-min Rain = 0
KASU 201300Z 30002KT 24/17 A3006 RMK A01 T02430170  RH  067%=      5-min Rain = 0
KASU 201305Z 31002KT 25/18 A3006 RMK A01 T02470175  RH  067%=      5-min Rain = 0
KASU 201310Z 30002KT 25/18 A3006 RMK A01 T02510176  RH  067%=      5-min Rain = 0
KASU 201315Z 33001KT 26/18 A3006 RMK A01 T02560180  RH  066%=      5-min Rain = 0
KASU 201320Z 02000KT 26/19 A3007 RMK A01 T02630185  RH  066%=      5-min Rain = 0
KASU 201325Z 11001KT 27/19 A3007 RMK A01 T02700186  RH  063%=      5-min Rain = 0
KASU 201330Z 16001KT 27/19 A3007 RMK A01 T02730186  RH  062%=      5-min Rain = 0
KASU 201335Z 21002KT 27/19 A3007 RMK A01 T02700186  RH  063%=      5-min Rain = 0
KASU 201340Z 22001KT 27/19 A3007 RMK A01 T02700188  RH  064%=      5-min Rain = 0
KASU 201345Z 22002KT 27/19 A3007 RMK A01 T02710188  RH  064%=      5-min Rain = 0
KASU 201350Z 25002KT 27/19 A3007 RMK A01 T02720188  RH  063%=      5-min Rain = 0
KASU 201355Z 24001KT 27/19 A3007 RMK A01 T02720188  RH  063%=      5-min Rain = 0
KASU 201400Z 22002KT 27/19 A3007 RMK A01 T02730188  RH  063%=      5-min Rain = 0
KASU 201405Z 24002KT 28/19 A3007 RMK A01 T02750188  RH  062%=      5-min Rain = 0
KASU 201410Z 19002KT 28/19 A3007 RMK A01 T02780189  RH  062%=      5-min Rain = 0
KASU 201415Z 18003KT 28/19 A3008 RMK A01 T02800189  RH  061%=      5-min Rain = 0
KASU 201420Z 20004KT 28/19 A3008 RMK A01 T02800189  RH  061%=      5-min Rain = 0
KASU 201425Z 20004KT 28/19 A3008 RMK A01 T02810189  RH  060%=      5-min Rain = 0
KASU 201430Z 20006KT 28/19 A3007 RMK A01 T02830189  RH  060%=      5-min Rain = 0
KASU 201435Z 19006KT 29/19 A3007 RMK A01 T02850189  RH  059%=      5-min Rain = 0
KASU 201440Z 19007KT 29/19 A3008 RMK A01 T02890188  RH  058%=      5-min Rain = 0
KASU 201445Z 19007KT 29/19 A3008 RMK A01 T02910188  RH  057%=      5-min Rain = 0
KASU 201450Z 20007KT 29/19 A3008 RMK A01 T02920187  RH  056%=      5-min Rain = 0
KASU 201455Z 20007KT 29/19 A3008 RMK A01 T02920187  RH  056%=      5-min Rain = 0
KASU 201500Z 21008KT 29/19 A3008 RMK A01 T02920185  RH  055%=      5-min Rain = 0
KASU 201505Z 21006G11KT 30/19 A3008 RMK A01 T02960187  RH  055%=      5-min Rain = 0
KASU 201510Z 19006KT 30/19 A3008 RMK A01 T02970187  RH  054%=      5-min Rain = 0
KASU 201515Z 17007KT 30/19 A3008 RMK A01 T03030187  RH  053%=      5-min Rain = 0
KASU 201520Z 19005KT 30/19 A3008 RMK A01 T03010187  RH  053%=      5-min Rain = 0
KASU 201525Z 20005KT 30/19 A3008 RMK A01 T03040186  RH  052%=      5-min Rain = 0
KASU 201530Z 17004KT 31/19 A3008 RMK A01 T03070188  RH  052%=      5-min Rain = 0
KASU 201535Z 18005KT 31/19 A3008 RMK A01 T03080187  RH  051%=      5-min Rain = 0
KASU 201540Z 18007KT 31/19 A3008 RMK A01 T03120185  RH  049%=      5-min Rain = 0
KASU 201545Z 15006KT 32/19 A3008 RMK A01 T03170188  RH  049%=      5-min Rain = 0
KASU 201550Z 16006KT 32/19 A3008 RMK A01 T03190189  RH  049%=      5-min Rain = 0
KASU 201555Z 16009KT 32/18 A3008 RMK A01 T03200184  RH  047%=      5-min Rain = 0
KASU 201600Z 16007KT 32/18 A3008 RMK A01 T03180182  RH  047%=      5-min Rain = 0
KASU 201605Z 17008KT 32/18 A3008 RMK A01 T03200182  RH  046%=      5-min Rain = 0
KASU 201610Z 17007KT 33/18 A3008 RMK A01 T03250181  RH  045%=      5-min Rain = 0
KASU 201615Z 13008G14KT 33/18 A3009 RMK A01 T03290180  RH  044%=      5-min Rain = 0
KASU 201620Z 14011KT 33/18 A3009 RMK A01 T03270178  RH  043%=      5-min Rain = 0
KASU 201625Z 15007KT 33/18 A3009 RMK A01 T03250178  RH  044%=      5-min Rain = 0
KASU 201630Z 16009G14KT 33/18 A3009 RMK A01 T03320177  RH  042%=      5-min Rain = 0
KASU 201635Z 15010G16KT 33/18 A3009 RMK A01 T03290175  RH  042%=      5-min Rain = 0
KASU 201640Z 15006G11KT 33/18 A3009 RMK A01 T03320178  RH  042%=      5-min Rain = 0
KASU 201645Z 16008G13KT 34/18 A3009 RMK A01 T03350176  RH  041%=      5-min Rain = 0
KASU 201650Z 16009KT 33/17 A3009 RMK A01 T03320174  RH  041%=      5-min Rain = 0
KASU 201655Z 15009KT 33/17 A3009 RMK A01 T03340173  RH  040%=      5-min Rain = 0
KASU 201700Z 15009G15KT 33/17 A3009 RMK A01 T03330172  RH  040%=      5-min Rain = 0
KASU 201705Z 14006G13KT 33/17 A3008 RMK A01 T03290172  RH  041%=      5-min Rain = 0
KASU 201710Z 14009G14KT 34/17 A3008 RMK A01 T03350172  RH  040%=      5-min Rain = 0
KASU 201715Z 13008G13KT 34/17 A3008 RMK A01 T03370168  RH  038%=      5-min Rain = 0
KASU 201720Z 14007G13KT 34/17 A3008 RMK A01 T03400168  RH  038%=      5-min Rain = 0
KASU 201725Z 16010G15KT 34/17 A3008 RMK A01 T03410171  RH  038%=      5-min Rain = 0
KASU 201730Z 17009KT 34/17 A3008 RMK A01 T03430168  RH  037%=      5-min Rain = 0
KASU 201735Z 16012KT 34/17 A3008 RMK A01 T03440165  RH  036%=      5-min Rain = 0
KASU 201740Z 16008G14KT 34/17 A3008 RMK A01 T03410166  RH  037%=      5-min Rain = 0
KASU 201745Z 14006KT 34/16 A3008 RMK A01 T03410163  RH  036%=      5-min Rain = 0
KASU 201750Z 15006G11KT 35/17 A3008 RMK A01 T03450165  RH  036%=      5-min Rain = 0
KASU 201755Z 17008G13KT 35/17 A3008 RMK A01 T03470165  RH  036%=      5-min Rain = 0
KASU 201800Z 16008G17KT 35/17 A3007 RMK A01 T03460165  RH  036%=      5-min Rain = 0
KASU 201805Z 16006G11KT 34/16 A3007 RMK A01 T03390162  RH  037%=      5-min Rain = 0
KASU 201810Z 14008KT 34/16 A3007 RMK A01 T03400162  RH  036%=      5-min Rain = 0
KASU 201815Z 16003G11KT 34/16 A3007 RMK A01 T03390161  RH  036%=      5-min Rain = 0
KASU 201820Z 18008G13KT 35/16 A3006 RMK A01 T03500162  RH  034%=      5-min Rain = 0
KASU 201825Z 19008KT 34/16 A3006 RMK A01 T03440160  RH  035%=      5-min Rain = 0
KASU 201830Z 16006G13KT 34/16 A3006 RMK A01 T03430159  RH  035%=      5-min Rain = 0
KASU 201835Z 12006KT 36/16 A3006 RMK A01 T03550161  RH  033%=      5-min Rain = 0
KASU 201840Z 11007KT 36/16 A3006 RMK A01 T03550155  RH  032%=      5-min Rain = 0
KASU 201845Z 12007G12KT 35/16 A3006 RMK A01 T03450159  RH  035%=      5-min Rain = 0
KASU 201850Z 15008G14KT 36/16 A3006 RMK A01 T03560157  RH  032%=      5-min Rain = 0
KASU 201855Z 14007G12KT 36/16 A3006 RMK A01 T03550156  RH  032%=      5-min Rain = 0
KASU 201900Z 12008KT 35/16 A3005 RMK A01 T03480156  RH  033%=      5-min Rain = 0
KASU 201905Z 15008G14KT 34/15 A3005 RMK A01 T03440154  RH  034%=      5-min Rain = 0
KASU 201910Z 14008G14KT 35/15 A3005 RMK A01 T03470153  RH  033%=      5-min Rain = 0
KASU 201915Z 11007KT 35/15 A3005 RMK A01 T03510154  RH  032%=      5-min Rain = 0
KASU 201920Z 09008G14KT 34/15 A3004 RMK A01 T03440151  RH  033%=      5-min Rain = 0
KASU 201925Z 10012G19KT 36/15 A3004 RMK A01 T03570152  RH  031%=      5-min Rain = 0
KASU 201930Z 09009KT 36/15 A3004 RMK A01 T03620149  RH  030%=      5-min Rain = 0
KASU 201935Z 14008G13KT 36/15 A3004 RMK A01 T03630149  RH  029%=      5-min Rain = 0
KASU 201940Z 14007G12KT 37/15 A3004 RMK A01 T03660152  RH  029%=      5-min Rain = 0
KASU 201945Z 09008KT 36/15 A3004 RMK A01 T03630152  RH  030%=      5-min Rain = 0
KASU 201950Z 10009G16KT 36/15 A3004 RMK A01 T03640150  RH  029%=      5-min Rain = 0
KASU 201955Z 10008G13KT 36/15 A3004 RMK A01 T03580147  RH  030%=      5-min Rain = 0
KASU 202000Z 11009G17KT 36/14 A3004 RMK A01 T03620141  RH  028%=      5-min Rain = 0
KASU 202005Z 13009G15KT 36/14 A3004 RMK A01 T03640139  RH  027%=      5-min Rain = 0
KASU 202010Z 12009G18KT 37/14 A3003 RMK A01 T03650136  RH  026%=      5-min Rain = 0
KASU 202015Z 14008G14KT 37/14 A3003 RMK A01 T03660136  RH  026%=      5-min Rain = 0
KASU 202020Z 10007G13KT 37/14 A3003 RMK A01 T03680139  RH  027%=      5-min Rain = 0
KASU 202025Z 11005G13KT 37/14 A3002 RMK A01 T03670140  RH  027%=      5-min Rain = 0
KASU 202030Z 09009G15KT 36/14 A3002 RMK A01 T03640138  RH  027%=      5-min Rain = 0
KASU 202035Z 08005G10KT 36/14 A3002 RMK A01 T03640143  RH  028%=      5-min Rain = 0
KASU 202040Z 13010G15KT 37/14 A3002 RMK A01 T03660139  RH  027%=      5-min Rain = 0
KASU 202045Z 09008G14KT 37/14 A3002 RMK A01 T03670140  RH  027%=      5-min Rain = 0
KASU 202050Z 12011G17KT 37/13 A3001 RMK A01 T03650128  RH  025%=      5-min Rain = 0
KASU 202055Z 12009G14KT 37/14 A3001 RMK A01 T03660135  RH  026%=      5-min Rain = 0
KASU 202100Z 12008KT 37/14 A3001 RMK A01 T03650137  RH  027%=      5-min Rain = 0
KASU 202105Z 12007G14KT 37/14 A3001 RMK A01 T03670141  RH  027%=      5-min Rain = 0
KASU 202110Z 11007KT 36/14 A3001 RMK A01 T03580138  RH  028%=      5-min Rain = 0
KASU 202115Z 09007KT 36/13 A30 RMK A01 T03560133  RH  027%=      5-min Rain = 0
KASU 202120Z 09008KT 37/13 A30 RMK A01 T03660130  RH  025%=      5-min Rain = 0
KASU 202125Z 11007G16KT 37/13 A30 RMK A01 T03710133  RH  025%=      5-min Rain = 0
KASU 202130Z 10010KT 37/13 A30 RMK A01 T03670128  RH  025%=      5-min Rain = 0
KASU 202135Z 11009G15KT 37/13 A30 RMK A01 T03690126  RH  024%=      5-min Rain = 0
KASU 202140Z 13008G15KT 37/13 A2999 RMK A01 T03700129  RH  025%=      5-min Rain = 0
KASU 202145Z 11007G12KT 37/13 A2999 RMK A01 T03680132  RH  025%=      5-min Rain = 0
KASU 202150Z 14004G10KT 38/13 A2999 RMK A01 T03750133  RH  025%=      5-min Rain = 0
KASU 202155Z 13011G17KT 37/13 A2999 RMK A01 T03720126  RH  024%=      5-min Rain = 0
KASU 202200Z 12006G12KT 36/12 A2999 RMK A01 T03630124  RH  025%=      5-min Rain = 0
KASU 202205Z 13010KT 37/12 A2999 RMK A01 T03690124  RH  024%=      5-min Rain = 0
KASU 202210Z 12012G17KT 37/12 A2999 RMK A01 T03690121  RH  023%=      5-min Rain = 0
KASU 202215Z 11010KT 37/12 A2999 RMK A01 T03720118  RH  023%=      5-min Rain = 0
KASU 202220Z 13009G14KT 37/12 A2999 RMK A01 T03740118  RH  022%=      5-min Rain = 0
KASU 202225Z 10008KT 37/12 A2999 RMK A01 T03700120  RH  023%=      5-min Rain = 0
KASU 202230Z 12006KT 37/12 A2999 RMK A01 T03710121  RH  023%=      5-min Rain = 0
KASU 202235Z 09010KT 37/12 A2999 RMK A01 T03720115  RH  022%=      5-min Rain = 0
KASU 202240Z 10009KT 37/11 A2999 RMK A01 T03720112  RH  022%=      5-min Rain = 0
KASU 202245Z 12006KT 37/11 A2998 RMK A01 T03740112  RH  021%=      5-min Rain = 0
KASU 202250Z 11006G14KT 38/11 A2998 RMK A01 T03750113  RH  022%=      5-min Rain = 0
KASU 202255Z 11008G13KT 37/12 A2999 RMK A01 T03690115  RH  023%=      5-min Rain = 0
KASU 202300Z 10007KT 37/12 A2999 RMK A01 T03700116  RH  023%=      5-min Rain = 0
KASU 202305Z 13009G14KT 37/12 A2999 RMK A01 T03680115  RH  023%=      5-min Rain = 0
KASU 202310Z 10011G17KT 37/11 A2999 RMK A01 T03680112  RH  022%=      5-min Rain = 0
KASU 202315Z 11010G16KT 37/11 A2999 RMK A01 T03670107  RH  021%=      5-min Rain = 0
KASU 202320Z 10010G15KT 37/10 A2999 RMK A01 T03650104  RH  021%=      5-min Rain = 0
KASU 202325Z 11008KT 37/11 A2999 RMK A01 T03650111  RH  022%=      5-min Rain = 0
KASU 202330Z 12008KT 37/12 A2999 RMK A01 T03660116  RH  023%=      5-min Rain = 0
KASU 202335Z 14008KT 37/12 A2998 RMK A01 T03650118  RH  023%=      5-min Rain = 0
KASU 202340Z 13005KT 37/12 A2998 RMK A01 T03650118  RH  024%=      5-min Rain = 0
KASU 202345Z 10007KT 36/12 A2998 RMK A01 T03630116  RH  023%=      5-min Rain = 0
KASU 202350Z 11008KT 36/11 A2998 RMK A01 T03630109  RH  022%=      5-min Rain = 0
KASU 202355Z 09008KT 36/10 A2998 RMK A01 T03620104  RH  022%=      5-min Rain = 0
KASU 210000Z 11009KT 36/11 A2998 RMK A01 T03610110  RH  023%=      5-min Rain = 0
KASU 210005Z 13007KT 36/11 A2998 RMK A01 T03600111  RH  023%=      5-min Rain = 0
KASU 210010Z 10007KT 36/11 A2998 RMK A01 T03600114  RH  023%=      5-min Rain = 0
KASU 210015Z 10007KT 36/11 A2998 RMK A01 T03580113  RH  024%=      5-min Rain = 0
KASU 210020Z 11007KT 36/11 A2998 RMK A01 T03570113  RH  024%=      5-min Rain = 0
KASU 210025Z 10008KT 36/12 A2998 RMK A01 T03550115  RH  024%=      5-min Rain = 0
KASU 210030Z 10008KT 35/11 A2998 RMK A01 T03530114  RH  024%=      5-min Rain = 0
KASU 210035Z 10007KT 35/12 A2998 RMK A01 T03520115  RH  025%=      5-min Rain = 0
KASU 210040Z 11008KT 35/11 A2998 RMK A01 T03500113  RH  025%=      5-min Rain = 0
KASU 210045Z 12007KT 35/12 A2998 RMK A01 T03490115  RH  025%=      5-min Rain = 0
KASU 210050Z 10007KT 35/12 A2998 RMK A01 T03470115  RH  025%=      5-min Rain = 0
KASU 210055Z 11006KT 34/12 A2998 RMK A01 T03440115  RH  026%=      5-min Rain = 0
KASU 210100Z 11004KT 34/12 A2998 RMK A01 T03400119  RH  027%=      5-min Rain = 0
KASU 210105Z 11005KT 34/12 A2998 RMK A01 T03350120  RH  028%=      5-min Rain = 0
KASU 210110Z 11006KT 33/12 A2998 RMK A01 T03340119  RH  028%=      5-min Rain = 0
KASU 210115Z 11005KT 33/12 A2998 RMK A01 T03310120  RH  029%=      5-min Rain = 0
KASU 210120Z 11004KT 33/12 A2999 RMK A01 T03280121  RH  029%=      5-min Rain = 0
KASU 210125Z 11005KT 33/12 A2999 RMK A01 T03250121  RH  030%=      5-min Rain = 0
KASU 210130Z 11005KT 32/12 A2999 RMK A01 T03220122  RH  031%=      5-min Rain = 0
KASU 210135Z 11005KT 32/12 A2999 RMK A01 T03180123  RH  031%=      5-min Rain = 0
KASU 210140Z 11005KT 32/12 A2999 RMK A01 T03160123  RH  032%=      5-min Rain = 0
KASU 210145Z 11005KT 31/12 A2999 RMK A01 T03140124  RH  032%=      5-min Rain = 0
KASU 210150Z 11005KT 31/12 A2999 RMK A01 T03140124  RH  033%=      5-min Rain = 0
KASU 210155Z 11005KT 31/13 A2999 RMK A01 T03120125  RH  033%=      5-min Rain = 0
KASU 210200Z 11005KT 31/13 A2999 RMK A01 T03100125  RH  034%=      5-min Rain = 0
KASU 210205Z 11004KT 31/13 A2999 RMK A01 T03070126  RH  034%=      5-min Rain = 0
KASU 210210Z 11004KT 30/13 A2999 RMK A01 T03010127  RH  036%=      5-min Rain = 0
KASU 210215Z 11003KT 30/13 A2999 RMK A01 T02980127  RH  036%=      5-min Rain = 0
KASU 210220Z 10004KT 30/13 A2999 RMK A01 T02980127  RH  036%=      5-min Rain = 0
KASU 210225Z 10004KT 30/13 A2999 RMK A01 T02970127  RH  037%=      5-min Rain = 0
KASU 210230Z 10004KT 30/13 A30 RMK A01 T02950128  RH  037%=      5-min Rain = 0
KASU 210235Z 10004KT 29/13 A30 RMK A01 T02930128  RH  038%=      5-min Rain = 0
KASU 210240Z 09004KT 29/13 A30 RMK A01 T02890129  RH  039%=      5-min Rain = 0
KASU 210245Z 10004KT 29/13 A30 RMK A01 T02850130  RH  040%=      5-min Rain = 0
KASU 210250Z 09004KT 28/13 A3001 RMK A01 T02830130  RH  041%=      5-min Rain = 0
KASU 210255Z 10004KT 28/13 A3001 RMK A01 T02820131  RH  041%=      5-min Rain = 0
KASU 210300Z 12003KT 28/13 A3001 RMK A01 T02800132  RH  042%=      5-min Rain = 0
KASU 210305Z 14003KT 28/13 A3001 RMK A01 T02800131  RH  041%=      5-min Rain = 0
KASU 210310Z 14004KT 28/13 A3001 RMK A01 T02830129  RH  040%=      5-min Rain = 0
KASU 210315Z 14004KT 28/13 A3001 RMK A01 T02840128  RH  040%=      5-min Rain = 0
KASU 210320Z 13004KT 28/13 A3001 RMK A01 T02830128  RH  040%=      5-min Rain = 0
KASU 210325Z 14004KT 28/13 A3001 RMK A01 T02810128  RH  040%=      5-min Rain = 0
KASU 210330Z 14004KT 28/13 A3002 RMK A01 T02820128  RH  040%=      5-min Rain = 0
KASU 210335Z 15005KT 28/13 A3002 RMK A01 T02830129  RH  040%=      5-min Rain = 0
KASU 210340Z 15004KT 28/13 A3002 RMK A01 T02830131  RH  041%=      5-min Rain = 0
KASU 210345Z 15005KT 28/14 A3002 RMK A01 T02830135  RH  042%=      5-min Rain = 0
KASU 210350Z 14005KT 28/14 A3002 RMK A01 T02840137  RH  042%=      5-min Rain = 0
KASU 210355Z 14005KT 28/14 A3002 RMK A01 T02840138  RH  042%=      5-min Rain = 0
KASU 210400Z 14005KT 28/14 A3002 RMK A01 T02830140  RH  043%=      5-min Rain = 0
KASU 210405Z 15004KT 28/14 A3003 RMK A01 T02820140  RH  043%=      5-min Rain = 0
KASU 210410Z 14004KT 28/14 A3003 RMK A01 T02820139  RH  043%=      5-min Rain = 0
KASU 210415Z 14003KT 28/14 A3003 RMK A01 T02790141  RH  045%=      5-min Rain = 0
KASU 210420Z 14003KT 28/14 A3003 RMK A01 T02770142  RH  045%=      5-min Rain = 0
KASU 210425Z 14003KT 28/14 A3003 RMK A01 T02760142  RH  046%=      5-min Rain = 0
KASU 210430Z 14003KT 28/14 A3003 RMK A01 T02760142  RH  046%=      5-min Rain = 0
KASU 210435Z 16003KT 28/14 A3003 RMK A01 T02750142  RH  046%=      5-min Rain = 0
KASU 210440Z 16003KT 28/14 A3003 RMK A01 T02750142  RH  046%=      5-min Rain = 0
KASU 210445Z 16002KT 27/14 A3003 RMK A01 T02740141  RH  046%=      5-min Rain = 0
KASU 210450Z 16002KT 27/14 A3003 RMK A01 T02730141  RH  046%=      5-min Rain = 0
KASU 210455Z 13001KT 27/14 A3003 RMK A01 T02740142  RH  046%=      5-min Rain = 0

Page generated in 0.009 seconds.